Time;durP1;ratioP1;P1;durP2;ratioP2;P2;SDS_P1;SDS_P2;PMS_P1;PMS_P2;Temp;Humidity;BMP_temperature;BMP_pressure;BME280_temperature;BME280_humidity;BME280_pressure;Samples;Min_cycle;Max_cycle;Signal;HPM_P1;HPM_P2
2024/03/15 00:00:11;;;;;;;;;48.40;39.00;;;;;7.79;100.00;98758.25;6119940;28;97397;-56
2024/03/15 00:03:15;;;;;;;;;45.00;36.00;;;;;7.73;100.00;98744.81;6093642;28;96436;-56
2024/03/15 00:06:18;;;;;;;;;44.00;35.00;;;;;7.73;100.00;98759.06;6114419;28;96295;-56
2024/03/15 00:09:21;;;;;;;;;41.00;33.60;;;;;7.72;100.00;98752.06;6130389;28;96272;-56
2024/03/15 00:12:25;;;;;;;;;47.75;36.00;;;;;7.73;100.00;98748.34;6108059;28;96618;-56
2024/03/15 00:15:28;;;;;;;;;45.00;36.00;;;;;7.63;100.00;98736.38;6121247;28;96375;-56
2024/03/15 00:18:33;;;;;;;;;45.40;37.20;;;;;7.58;100.00;98739.66;6115663;28;96301;-56
2024/03/15 00:21:37;;;;;;;;;45.00;36.00;;;;;7.63;100.00;98739.88;6100498;28;96280;-56
2024/03/15 00:24:41;;;;;;;;;41.40;33.60;;;;;7.50;100.00;98737.19;6125293;28;96464;-56
2024/03/15 00:27:45;;;;;;;;;43.25;35.00;;;;;7.51;100.00;98732.66;6125127;28;96463;-56
2024/03/15 00:30:49;;;;;;;;;47.00;36.80;;;;;7.56;100.00;98733.72;6123677;28;97006;-56
2024/03/15 00:33:53;;;;;;;;;42.00;35.00;;;;;7.58;100.00;98728.13;6120149;28;96746;-56
2024/03/15 00:36:56;;;;;;;;;42.50;33.00;;;;;7.41;100.00;98716.97;6107697;28;97197;-56
2024/03/15 00:39:59;;;;;;;;;45.20;35.80;;;;;7.32;100.00;98713.69;6111027;28;96489;-56
2024/03/15 00:43:03;;;;;;;;;44.00;33.00;;;;;7.31;100.00;98717.38;6131578;28;96411;-56
2024/03/15 00:46:06;;;;;;;;;40.20;34.60;;;;;7.26;100.00;98713.66;6126479;28;96927;-56
2024/03/15 00:49:10;;;;;;;;;44.80;35.00;;;;;7.25;100.00;98718.19;6121723;28;96217;-56
2024/03/15 00:52:13;;;;;;;;;44.25;35.75;;;;;7.12;100.00;98698.59;6115891;28;96501;-56
2024/03/15 00:55:19;;;;;;;;;42.00;35.00;;;;;7.22;100.00;98710.56;6123542;28;96399;-56
2024/03/15 00:58:22;;;;;;;;;39.60;32.00;;;;;7.19;100.00;98710.13;6124175;28;96351;-56
2024/03/15 01:01:26;;;;;;;;;45.00;34.75;;;;;7.21;100.00;98705.41;6091739;28;97372;-56
2024/03/15 01:04:29;;;;;;;;;41.60;35.00;;;;;7.13;100.00;98700.25;6116825;28;97032;-56
2024/03/15 01:07:32;;;;;;;;;39.40;33.00;;;;;7.00;100.00;98700.22;6109585;28;96650;-56
2024/03/15 01:10:36;;;;;;;;;45.75;35.00;;;;;6.88;100.00;98694.63;6123038;28;96425;-56
2024/03/15 01:13:42;;;;;;;;;41.50;34.00;;;;;6.82;100.00;98698.94;6093690;28;96569;-56
2024/03/15 01:16:47;;;;;;;;;40.60;34.60;;;;;6.76;100.00;98694.38;6093920;28;96684;-56
2024/03/15 01:19:50;;;;;;;;;47.20;36.20;;;;;6.73;100.00;98702.00;6130876;28;96441;-56
2024/03/15 01:22:55;;;;;;;;;41.50;34.00;;;;;6.79;100.00;98698.53;6134438;28;96246;-56
2024/03/15 01:25:59;;;;;;;;;39.50;33.00;;;;;6.86;100.00;98702.88;6124513;28;96757;-56
2024/03/15 01:29:02;;;;;;;;;43.00;35.00;;;;;6.79;100.00;98695.84;6112037;28;96667;-56
2024/03/15 01:32:05;;;;;;;;;44.40;36.00;;;;;6.76;100.00;98702.44;6114938;28;96254;-56
2024/03/15 01:35:08;;;;;;;;;42.25;35.00;;;;;6.71;100.00;98699.53;6118221;28;96385;-56
2024/03/15 01:38:12;;;;;;;;;44.60;36.00;;;;;6.68;100.00;98699.94;6136444;28;96575;-56
2024/03/15 01:41:15;;;;;;;;;40.60;34.00;;;;;6.75;100.00;98705.31;6114660;28;96264;-56
2024/03/15 01:44:18;;;;;;;;;40.00;33.00;;;;;6.81;100.00;98699.97;6123205;28;96843;-56
2024/03/15 01:47:21;;;;;;;;;44.20;35.40;;;;;6.88;100.00;98719.59;6110605;28;96469;-56
2024/03/15 01:50:24;;;;;;;;;41.20;35.00;;;;;6.95;100.00;98706.19;6113450;28;96942;-56
2024/03/15 01:53:28;;;;;;;;;44.33;35.00;;;;;6.98;100.00;98703.13;6118186;28;97705;-56
2024/03/15 01:56:31;;;;;;;;;39.60;33.60;;;;;7.00;100.00;98708.25;6135736;28;98234;-56
2024/03/15 01:59:34;;;;;;;;;40.40;33.00;;;;;7.00;100.00;98706.41;6126425;28;96448;-56
2024/03/15 02:02:38;;;;;;;;;38.00;32.60;;;;;7.02;100.00;98716.94;6128226;23;97869;-57
2024/03/15 02:05:43;;;;;;;;;41.80;34.60;;;;;6.94;100.00;98710.72;6119609;28;98658;-57
2024/03/15 02:08:46;;;;;;;;;41.00;33.40;;;;;6.90;100.00;98714.00;6126473;28;96626;-53
2024/03/15 02:11:50;;;;;;;;;38.40;33.00;;;;;6.89;100.00;98717.72;6130085;28;96285;-53
2024/03/15 02:14:54;;;;;;;;;43.60;37.00;;;;;6.79;100.00;98706.56;6141468;28;96573;-53
2024/03/15 02:17:57;;;;;;;;;45.40;38.00;;;;;6.71;100.00;98704.06;6132149;28;96478;-53
2024/03/15 02:21:00;;;;;;;;;37.80;32.80;;;;;6.65;100.00;98710.22;6139083;28;96341;-53
2024/03/15 02:24:05;;;;;;;;;42.40;34.80;;;;;6.61;100.00;98704.44;6136633;28;96222;-53
2024/03/15 02:27:13;;;;;;;;;36.20;32.00;;;;;6.55;100.00;98709.78;6123876;28;98341;-53
2024/03/15 02:30:17;;;;;;;;;39.20;33.00;;;;;6.51;100.00;98712.84;6112526;28;96659;-54
2024/03/15 02:33:20;;;;;;;;;39.00;32.00;;;;;6.46;100.00;98712.63;6117156;28;96531;-53
2024/03/15 02:36:24;;;;;;;;;37.00;31.00;;;;;6.40;100.00;98717.97;6117340;28;97601;-53
2024/03/15 02:39:27;;;;;;;;;39.25;33.00;;;;;6.33;100.00;98709.06;6128905;28;96360;-53
2024/03/15 02:42:30;;;;;;;;;41.20;33.00;;;;;6.24;100.00;98702.22;6123925;28;96327;-53
2024/03/15 02:45:34;;;;;;;;;41.60;33.00;;;;;6.19;100.00;98707.34;6102823;28;96614;-54
2024/03/15 02:48:38;;;;;;;;;35.60;31.00;;;;;6.15;100.00;98708.78;6103931;28;96311;-55
2024/03/15 02:51:42;;;;;;;;;40.60;35.00;;;;;6.11;100.00;98712.88;6133740;28;96448;-53
2024/03/15 02:54:45;;;;;;;;;38.00;32.00;;;;;6.07;100.00;98707.91;6129227;28;96250;-54
2024/03/15 02:57:49;;;;;;;;;36.40;30.00;;;;;5.96;100.00;98689.72;6104704;28;96453;-53
2024/03/15 03:00:52;;;;;;;;;41.00;33.20;;;;;5.92;100.00;98677.75;6105137;28;96300;-53
2024/03/15 03:03:56;;;;;;;;;38.60;32.00;;;;;6.05;100.00;98703.78;6094395;28;96378;-53
2024/03/15 03:06:59;;;;;;;;;36.60;32.00;;;;;6.08;100.00;98700.69;6119172;28;96357;-53
2024/03/15 03:10:03;;;;;;;;;35.20;30.60;;;;;5.98;100.00;98695.69;6103260;28;96892;-54
2024/03/15 03:13:07;;;;;;;;;36.75;30.00;;;;;5.90;100.00;98703.91;6104038;28;96367;-53
2024/03/15 03:16:11;;;;;;;;;36.00;32.40;;;;;5.84;100.00;98707.31;6122808;28;96502;-53
2024/03/15 03:19:17;;;;;;;;;37.80;31.60;;;;;5.76;100.00;98699.47;6123169;28;96285;-56
2024/03/15 03:22:20;;;;;;;;;32.00;30.00;;;;;5.66;100.00;98702.47;6120487;28;96358;-57
2024/03/15 03:25:24;;;;;;;;;34.40;30.60;;;;;5.59;100.00;98696.25;6104781;28;96249;-57
2024/03/15 03:28:27;;;;;;;;;33.25;30.00;;;;;5.55;100.00;98696.81;6132967;28;96384;-57
2024/03/15 03:31:30;;;;;;;;;38.50;32.25;;;;;5.52;100.00;98699.91;6128595;28;97990;-57
2024/03/15 03:34:33;;;;;;;;;37.20;32.60;;;;;5.50;100.00;98704.59;6108294;28;96589;-57
2024/03/15 03:37:37;;;;;;;;;39.80;33.80;;;;;5.48;100.00;98701.28;6154222;28;96868;-57
2024/03/15 03:40:40;;;;;;;;;36.40;30.00;;;;;5.46;100.00;98708.69;6137454;28;97037;-57
2024/03/15 03:43:44;;;;;;;;;39.00;31.80;;;;;5.46;100.00;98708.69;6084138;28;99742;-57
2024/03/15 03:46:48;;;;;;;;;34.60;30.00;;;;;5.50;100.00;98713.44;6128500;28;96359;-57
2024/03/15 03:49:51;;;;;;;;;37.50;32.00;;;;;5.56;100.00;98711.84;6138974;28;96229;-57
2024/03/15 03:52:55;;;;;;;;;32.00;28.50;;;;;5.51;100.00;98704.41;6124674;28;96413;-57
2024/03/15 03:55:58;;;;;;;;;36.00;30.60;;;;;5.62;100.00;98713.72;6124675;28;96874;-57
2024/03/15 03:59:02;;;;;;;;;39.80;33.00;;;;;5.64;100.00;98719.72;6093446;28;96298;-57
2024/03/15 04:02:05;;;;;;;;;35.75;31.00;;;;;5.71;100.00;98722.47;6124520;28;96293;-57
2024/03/15 04:05:09;;;;;;;;;40.75;33.00;;;;;5.79;100.00;98725.81;6123286;28;98355;-57
2024/03/15 04:08:12;;;;;;;;;43.25;32.25;;;;;5.85;100.00;98718.84;6131191;28;96577;-57
2024/03/15 04:11:16;;;;;;;;;41.60;33.60;;;;;5.98;100.00;98722.47;6115654;28;98581;-57
2024/03/15 04:14:20;;;;;;;;;38.00;32.00;;;;;6.04;100.00;98721.69;6128702;28;96547;-57
2024/03/15 04:17:24;;;;;;;;;37.20;31.00;;;;;6.05;100.00;98711.81;6144353;28;97041;-57
2024/03/15 04:20:27;;;;;;;;;38.00;32.60;;;;;5.87;100.00;98700.75;6120342;28;96570;-57
2024/03/15 04:23:32;;;;;;;;;37.00;32.00;;;;;5.86;100.00;98715.16;6133447;28;96431;-57
2024/03/15 04:26:36;;;;;;;;;33.20;30.00;;;;;5.84;100.00;98719.88;6133824;28;96363;-57
2024/03/15 04:29:40;;;;;;;;;33.60;30.00;;;;;5.85;100.00;98713.50;6143436;28;96330;-54
2024/03/15 04:32:46;;;;;;;;;35.00;31.80;;;;;5.88;100.00;98718.47;6119914;28;97646;-55
2024/03/15 04:35:50;;;;;;;;;35.60;30.60;;;;;5.90;100.00;98714.59;6125094;28;98640;-54
2024/03/15 04:38:54;;;;;;;;;33.60;30.00;;;;;5.88;100.00;98713.13;6140495;28;96214;-54
2024/03/15 04:41:57;;;;;;;;;35.60;28.60;;;;;5.83;100.00;98716.34;6140255;28;96543;-54
2024/03/15 04:45:04;;;;;;;;;37.00;32.00;;;;;5.80;100.00;98714.09;6122288;28;96358;-55
2024/03/15 04:48:07;;;;;;;;;33.80;30.00;;;;;5.66;100.00;98715.00;6154369;28;96664;-54
2024/03/15 04:51:10;;;;;;;;;33.60;29.40;;;;;5.67;100.00;98706.78;6138905;28;96259;-55
2024/03/15 04:54:14;;;;;;;;;29.20;26.20;;;;;5.56;100.00;98707.34;6131733;28;96415;-57
2024/03/15 04:57:18;;;;;;;;;27.60;25.40;;;;;5.47;100.00;98708.47;6151011;28;96360;-54
2024/03/15 05:00:22;;;;;;;;;33.80;28.20;;;;;5.41;100.00;98690.56;6113615;28;97457;-54
2024/03/15 05:03:25;;;;;;;;;34.00;30.50;;;;;5.63;100.00;98710.03;6145950;28;96852;-55
2024/03/15 05:06:30;;;;;;;;;29.40;28.40;;;;;5.64;100.00;98714.38;6139706;28;96916;-54
2024/03/15 05:09:34;;;;;;;;;30.00;26.00;;;;;5.66;100.00;98709.66;6132144;28;96271;-56
2024/03/15 05:12:38;;;;;;;;;28.40;24.80;;;;;5.63;100.00;98704.69;6112419;28;96734;-54
2024/03/15 05:15:41;;;;;;;;;28.00;24.60;;;;;5.59;100.00;98706.09;6119752;28;96357;-54
2024/03/15 05:18:45;;;;;;;;;26.00;23.75;;;;;5.67;100.00;98708.63;6115147;28;96489;-53
2024/03/15 05:21:49;;;;;;;;;30.20;26.40;;;;;5.73;100.00;98707.03;6097791;28;98685;-52
2024/03/15 05:24:52;;;;;;;;;30.50;27.00;;;;;5.86;100.00;98707.13;6133377;28;96967;-53
2024/03/15 05:27:55;;;;;;;;;33.80;28.60;;;;;5.95;100.00;98704.13;6117592;28;97813;-54
2024/03/15 05:30:58;;;;;;;;;32.00;28.60;;;;;6.00;100.00;98716.94;6120391;28;96287;-53
2024/03/15 05:34:02;;;;;;;;;33.25;30.00;;;;;6.09;100.00;98713.88;6111993;28;98493;-54
2024/03/15 05:37:05;;;;;;;;;30.60;26.60;;;;;6.22;100.00;98725.69;6148832;28;97067;-55
2024/03/15 05:40:10;;;;;;;;;31.80;29.80;;;;;6.33;100.00;98725.13;6131425;28;96741;-57
2024/03/15 05:43:14;;;;;;;;;32.00;28.40;;;;;6.44;100.00;98722.72;6116046;28;96622;-57
2024/03/15 05:46:17;;;;;;;;;34.75;30.50;;;;;6.54;100.00;98730.38;6111510;28;99598;-57
2024/03/15 05:49:22;;;;;;;;;32.00;29.00;;;;;6.65;100.00;98734.31;6136962;28;96592;-57
2024/03/15 05:52:25;;;;;;;;;32.20;28.60;;;;;6.69;100.00;98728.38;6129468;28;96948;-57
2024/03/15 05:55:28;;;;;;;;;32.00;29.00;;;;;6.82;100.00;98724.91;6120705;28;96462;-57
2024/03/15 05:58:31;;;;;;;;;33.40;30.00;;;;;6.93;100.00;98724.34;6144698;28;97172;-57
2024/03/15 06:01:34;;;;;;;;;32.60;28.60;;;;;7.09;100.00;98723.09;6113252;28;96395;-57
2024/03/15 06:04:37;;;;;;;;;33.00;30.00;;;;;7.20;100.00;98714.47;6112640;28;96501;-57
2024/03/15 06:07:40;;;;;;;;;30.80;25.00;;;;;7.28;100.00;98725.03;6101047;28;96333;-57
2024/03/15 06:10:43;;;;;;;;;32.40;27.00;;;;;7.36;100.00;98732.88;6107416;28;98515;-57
2024/03/15 06:13:47;;;;;;;;;29.75;26.00;;;;;7.46;100.00;98729.78;6120255;28;97235;-58
2024/03/15 06:16:50;;;;;;;;;27.00;24.00;;;;;7.54;100.00;98738.44;6115192;28;96498;-58
2024/03/15 06:19:54;;;;;;;;;28.80;24.80;;;;;7.66;100.00;98741.34;6087850;28;97992;-59
2024/03/15 06:22:57;;;;;;;;;31.40;26.40;;;;;7.77;100.00;98744.22;6121434;28;97341;-57
2024/03/15 06:26:02;;;;;;;;;32.40;28.00;;;;;7.88;100.00;98745.44;6129542;28;96323;-58
2024/03/15 06:29:06;;;;;;;;;32.00;28.00;;;;;8.02;100.00;98747.06;6128182;28;96673;-58
2024/03/15 06:32:15;;;;;;;;;31.00;26.20;;;;;7.81;100.00;98699.03;6111924;28;98503;-58
2024/03/15 06:35:19;;;;;;;;;33.40;29.00;;;;;8.28;100.00;98741.66;6145532;28;96498;-58
2024/03/15 06:38:40;;;;;;;;;28.25;26.00;;;;;8.46;100.00;98748.25;6129425;28;96384;-58
2024/03/15 06:41:50;;;;;;;;;34.40;27.00;;;;;8.28;100.00;98754.28;6122977;28;96242;-57
2024/03/15 06:45:03;;;;;;;;;34.50;30.50;;;;;8.11;100.00;98753.88;6108108;28;96709;-58
2024/03/15 06:48:17;;;;;;;;;36.80;31.80;;;;;8.15;100.00;98751.63;6137942;28;97099;-57
2024/03/15 06:54:41;;;;;;;;;33.00;31.00;;;;;8.37;100.00;98763.78;6165986;28;96412;-59
2024/03/15 06:57:45;;;;;;;;;32.00;27.60;;;;;8.48;100.00;98765.00;6160840;28;96310;-58
2024/03/15 07:00:49;;;;;;;;;33.00;28.40;;;;;8.57;100.00;98755.66;6160980;28;97037;-58
2024/03/15 07:03:52;;;;;;;;;33.00;30.00;;;;;8.70;100.00;98769.88;6142946;28;96380;-59
2024/03/15 07:06:55;;;;;;;;;34.67;31.67;;;;;8.78;100.00;98768.81;6160667;28;96310;-59
2024/03/15 07:09:58;;;;;;;;;35.00;31.00;;;;;8.80;100.00;98765.91;6160791;28;96389;-59
2024/03/15 07:13:02;;;;;;;;;36.60;30.80;;;;;8.88;100.00;98768.38;6136472;28;96363;-56
2024/03/15 07:16:07;;;;;;;;;37.00;30.50;;;;;9.05;100.00;98759.59;6156164;28;97016;-58
2024/03/15 07:19:13;;;;;;;;;34.00;30.00;;;;;9.22;100.00;98759.09;6161385;28;96315;-58
2024/03/15 07:22:16;;;;;;;;;37.00;31.00;;;;;9.31;100.00;98760.47;6161388;28;96304;-59
2024/03/15 07:25:20;;;;;;;;;35.00;30.60;;;;;9.27;100.00;98760.09;6157285;28;96348;-58
2024/03/15 07:28:23;;;;;;;;;30.75;29.00;;;;;9.50;100.00;98760.34;6134261;28;96246;-57
2024/03/15 07:31:26;;;;;;;;;34.40;30.00;;;;;9.23;100.00;98753.50;6135640;28;96249;-59
2024/03/15 07:34:29;;;;;;;;;36.60;31.60;;;;;9.47;100.00;98754.59;6120227;28;98424;-58
2024/03/15 07:37:33;;;;;;;;;32.40;29.00;;;;;9.41;100.00;98761.66;6172531;28;96242;-57
2024/03/15 07:40:36;;;;;;;;;37.60;31.60;;;;;9.45;100.00;98759.34;6120684;28;96778;-59
2024/03/15 07:43:39;;;;;;;;;34.20;30.00;;;;;9.64;100.00;98762.94;6138967;28;96705;-59
2024/03/15 07:46:42;;;;;;;;;36.80;30.00;;;;;9.81;100.00;98759.50;6167144;28;96956;-58
2024/03/15 07:49:47;;;;;;;;;34.00;30.00;;;;;10.02;100.00;98770.94;6159434;28;96275;-59
2024/03/15 07:52:50;;;;;;;;;38.00;31.00;;;;;9.99;100.00;98774.88;6178856;28;96261;-56
2024/03/15 07:55:54;;;;;;;;;38.00;32.00;;;;;10.11;100.00;98781.19;6160849;28;96266;-58
2024/03/15 07:58:57;;;;;;;;;39.00;33.00;;;;;9.95;100.00;98768.28;6169786;28;96261;-57
2024/03/15 08:02:03;;;;;;;;;40.20;33.20;;;;;9.56;100.00;98772.13;6148117;28;96374;-58
2024/03/15 08:05:06;;;;;;;;;37.75;33.00;;;;;9.64;100.00;98771.84;6132756;28;96360;-57
2024/03/15 08:08:10;;;;;;;;;43.50;34.00;;;;;9.97;100.00;98777.78;6116315;28;96954;-58
2024/03/15 08:11:13;;;;;;;;;38.60;31.00;;;;;9.94;100.00;98775.53;6132459;28;96960;-58
2024/03/15 08:14:16;;;;;;;;;36.25;32.00;;;;;10.15;100.00;98779.72;6132076;28;96311;-58
2024/03/15 08:17:19;;;;;;;;;37.40;31.40;;;;;10.34;100.00;98767.94;6147963;28;96377;-58
2024/03/15 08:20:22;;;;;;;;;39.00;30.00;;;;;10.60;100.00;98774.94;6144103;28;96375;-58
2024/03/15 08:23:26;;;;;;;;;36.40;31.00;;;;;10.62;100.00;98770.13;6148542;28;96421;-58
2024/03/15 08:26:29;;;;;;;;;30.40;27.40;;;;;10.71;100.00;98771.47;6130819;28;96262;-57
2024/03/15 08:29:33;;;;;;;;;32.00;28.00;;;;;10.58;100.00;98771.63;6121414;28;96637;-58
2024/03/15 08:32:36;;;;;;;;;31.00;29.00;;;;;10.60;100.00;98766.00;6122261;28;96317;-57
2024/03/15 08:35:41;;;;;;;;;30.00;25.40;;;;;10.52;100.00;98772.50;6138924;28;96517;-58
2024/03/15 08:38:44;;;;;;;;;33.50;29.25;;;;;10.81;100.00;98768.25;6138811;28;96601;-58
2024/03/15 08:41:47;;;;;;;;;31.00;29.00;;;;;10.60;100.00;98755.22;6138463;28;96316;-58
2024/03/15 08:44:50;;;;;;;;;29.00;25.80;;;;;10.96;100.00;98752.50;6139410;28;96489;-57
2024/03/15 08:47:53;;;;;;;;;29.60;27.00;;;;;11.36;100.00;98752.78;6139539;28;96472;-58
2024/03/15 08:51:04;;;;;;;;;25.20;22.20;;;;;11.73;100.00;98761.56;6145881;28;96574;-58
2024/03/15 08:54:07;;;;;;;;;26.80;24.40;;;;;12.18;100.00;98755.63;6114019;28;97526;-57
2024/03/15 08:57:11;;;;;;;;;28.40;25.40;;;;;12.14;100.00;98755.28;6128977;28;96376;-57
2024/03/15 09:00:14;;;;;;;;;28.80;25.80;;;;;12.23;100.00;98759.28;6106015;28;96752;-58
2024/03/15 09:03:18;;;;;;;;;28.60;25.00;;;;;12.17;100.00;98762.91;6137086;28;96616;-58
2024/03/15 09:06:22;;;;;;;;;25.00;23.00;;;;;12.23;100.00;98755.75;6130890;28;97448;-58
2024/03/15 09:09:32;;;;;;;;;28.40;25.20;;;;;12.27;100.00;98759.63;6145901;28;96549;-58
2024/03/15 09:12:36;;;;;;;;;29.75;25.75;;;;;12.22;100.00;98768.44;6127511;28;97066;-58
2024/03/15 09:15:39;;;;;;;;;29.00;27.00;;;;;12.27;100.00;98759.63;6125542;28;97363;-58
2024/03/15 09:18:43;;;;;;;;;31.00;24.60;;;;;12.29;100.00;98760.22;6120674;28;96570;-58
2024/03/15 09:21:48;;;;;;;;;24.40;22.00;;;;;12.27;100.00;98749.63;6124839;28;96501;-58
2024/03/15 09:24:52;;;;;;;;;28.00;24.00;;;;;12.45;100.00;98763.03;6105992;28;96534;-58
2024/03/15 09:27:57;;;;;;;;;27.40;27.00;;;;;12.66;100.00;98750.75;6129349;28;96749;-58
2024/03/15 09:31:08;;;;;;;;;25.40;23.80;;;;;12.92;100.00;98752.94;6128603;28;96418;-58
2024/03/15 09:34:13;;;;;;;;;25.60;24.60;;;;;13.08;100.00;98767.59;6136470;28;97035;-58
2024/03/15 09:37:19;;;;;;;;;26.80;24.20;;;;;13.03;100.00;98756.69;6125291;28;96528;-59
2024/03/15 09:40:28;;;;;;;;;31.67;27.00;;;;;13.12;100.00;98754.44;6135687;28;96367;-58
2024/03/15 09:43:31;;;;;;;;;31.00;27.00;;;;;13.15;100.00;98748.53;6146887;28;97502;-59
2024/03/15 09:46:35;;;;;;;;;31.20;27.20;;;;;13.22;100.00;98746.50;6141811;28;96320;-58
2024/03/15 09:49:39;;;;;;;;;30.60;28.20;;;;;13.48;100.00;98745.91;6132910;28;96457;-58
2024/03/15 09:52:42;;;;;;;;;32.00;28.00;;;;;13.74;100.00;98745.28;6145093;28;96324;-58
2024/03/15 09:55:52;;;;;;;;;31.75;26.75;;;;;13.76;100.00;98728.78;6145371;28;96360;-58
2024/03/15 09:58:57;;;;;;;;;30.80;25.40;;;;;14.28;100.00;98748.28;6146357;28;96395;-57
2024/03/15 10:02:00;;;;;;;;;27.50;26.50;;;;;14.36;100.00;98747.91;6128515;28;96610;-58
2024/03/15 10:05:07;;;;;;;;;30.40;27.00;;;;;15.00;100.00;98742.78;6130050;28;96843;-58
2024/03/15 10:08:10;;;;;;;;;31.00;26.00;;;;;15.33;100.00;98741.78;6131434;28;96444;-58
2024/03/15 10:11:14;;;;;;;;;29.40;26.40;;;;;16.59;100.00;98739.31;6111622;28;96862;-58
2024/03/15 10:14:17;;;;;;;;;30.20;25.00;;;;;18.69;100.00;98735.53;6113768;28;96428;-58
2024/03/15 10:17:20;;;;;;;;;28.40;24.60;;;;;;;;6129905;28;96292;-58
2024/03/15 10:20:23;;;;;;;;;31.80;28.00;;;;;22.61;100.00;98722.50;6170049;28;95927;-59
2024/03/15 10:23:26;;;;;;;;;26.00;22.60;;;;;24.66;91.10;98716.41;6158339;28;96418;-59
2024/03/15 10:26:29;;;;;;;;;32.00;26.00;;;;;27.49;80.77;98720.84;6132016;28;96372;-60
2024/03/15 10:29:33;;;;;;;;;32.00;26.50;;;;;30.27;68.48;98715.06;6148878;28;96361;-61
2024/03/15 10:32:36;;;;;;;;;29.75;28.00;;;;;32.36;54.45;98700.50;6133713;28;96317;-60
2024/03/15 10:35:39;;;;;;;;;27.40;24.20;;;;;34.39;50.30;98706.00;6147919;28;96339;-60
2024/03/15 10:38:42;;;;;;;;;26.00;24.00;;;;;36.03;44.75;98697.59;6147118;28;96287;-61
2024/03/15 10:41:45;;;;;;;;;26.40;25.00;;;;;37.42;41.93;98688.16;6145721;28;96317;-61
2024/03/15 10:44:51;;;;;;;;;24.50;23.00;;;;;38.51;35.46;98686.13;6144837;28;96297;-61
2024/03/15 10:47:54;;;;;;;;;27.00;23.00;;;;;39.36;36.19;98676.97;6146286;28;96282;-60
2024/03/15 10:50:57;;;;;;;;;26.50;24.25;;;;;40.28;34.14;98658.91;6148245;28;96384;-61
2024/03/15 10:54:00;;;;;;;;;25.00;23.75;;;;;41.18;33.18;98667.59;6153010;28;96330;-61
2024/03/15 10:57:04;;;;;;;;;24.00;22.00;;;;;41.74;32.48;98660.03;6139586;28;96250;-61
2024/03/15 11:00:14;;;;;;;;;25.00;24.00;;;;;42.51;32.06;98656.75;6141926;28;96211;-62
2024/03/15 11:03:21;;;;;;;;;25.75;23.00;;;;;43.24;30.64;98647.63;6149971;28;96672;-62
2024/03/15 11:06:39;;;;;;;;;23.00;21.00;;;;;43.53;29.73;98645.63;6144770;28;96626;-61
2024/03/15 11:09:42;;;;;;;;;23.60;22.00;;;;;43.36;28.66;98640.41;6152221;28;96292;-62
2024/03/15 11:12:51;;;;;;;;;27.40;25.40;;;;;43.43;27.88;98637.38;6134215;28;96866;-62
2024/03/15 11:15:55;;;;;;;;;28.00;24.00;;;;;43.19;28.95;98637.63;6154193;28;96333;-62
2024/03/15 11:19:05;;;;;;;;;27.80;24.00;;;;;42.49;27.28;98631.69;6149947;28;96313;-61
2024/03/15 11:22:16;;;;;;;;;27.60;24.40;;;;;42.76;29.43;98623.72;6144129;28;96341;-61
2024/03/15 11:25:19;;;;;;;;;24.00;23.00;;;;;42.59;29.00;98624.94;6154767;28;96258;-61
2024/03/15 11:28:23;;;;;;;;;24.00;23.00;;;;;42.58;29.47;98631.84;6126872;28;97715;-60
2024/03/15 11:31:28;;;;;;;;;23.60;22.00;;;;;42.56;28.76;98625.06;6140609;28;96287;-56
2024/03/15 11:34:31;;;;;;;;;22.60;22.00;;;;;42.49;29.00;98616.72;6140413;28;98098;-55
2024/03/15 11:37:34;;;;;;;;;25.00;24.00;;;;;41.39;29.86;98616.25;6153675;28;96254;-55
2024/03/15 11:40:37;;;;;;;;;24.00;21.75;;;;;40.35;29.93;98607.97;6144090;28;96260;-55
2024/03/15 11:43:41;;;;;;;;;24.40;22.40;;;;;39.23;30.61;98609.00;6138272;28;97747;-55
2024/03/15 11:46:45;;;;;;;;;22.60;20.60;;;;;38.65;32.92;98597.88;6154416;28;97508;-55
2024/03/15 11:49:54;;;;;;;;;25.80;22.80;;;;;38.53;34.07;98599.97;6139127;28;97010;-56
2024/03/15 11:52:58;;;;;;;;;24.00;22.40;;;;;38.34;34.13;98600.50;6139328;28;96291;-56
2024/03/15 11:56:02;;;;;;;;;22.20;20.20;;;;;38.19;33.32;98584.13;6138980;28;96316;-55
2024/03/15 11:59:06;;;;;;;;;23.00;22.00;;;;;38.17;32.83;98581.72;6118359;28;96233;-57
2024/03/15 12:02:09;;;;;;;;;22.80;19.80;;;;;37.95;35.11;98585.88;6130280;28;96351;-55
2024/03/15 12:05:12;;;;;;;;;24.00;21.00;;;;;37.84;34.68;98582.31;6129719;28;96505;-55
2024/03/15 12:08:16;;;;;;;;;25.00;22.00;;;;;37.60;34.40;98584.03;6138915;28;96607;-56
2024/03/15 12:11:19;;;;;;;;;26.00;23.00;;;;;37.78;35.83;98579.13;6150699;28;96440;-55
2024/03/15 12:14:23;;;;;;;;;26.00;23.00;;;;;37.98;36.04;98563.31;6136629;28;97487;-55
2024/03/15 12:17:26;;;;;;;;;23.00;21.00;;;;;37.67;34.27;98569.97;6136108;28;96440;-56
2024/03/15 12:20:30;;;;;;;;;21.00;20.00;;;;;37.74;35.92;98564.28;6130292;28;96878;-56
2024/03/15 12:23:33;;;;;;;;;23.20;21.20;;;;;36.86;36.82;98551.31;6146096;28;96273;-56
2024/03/15 12:26:40;;;;;;;;;27.00;24.60;;;;;35.50;39.36;98557.16;6158147;28;96266;-54
2024/03/15 12:29:43;;;;;;;;;23.80;21.40;;;;;34.42;42.62;98544.88;6148542;28;96661;-54
2024/03/15 12:32:46;;;;;;;;;25.25;22.75;;;;;32.26;46.42;98540.13;6112507;28;98318;-54
2024/03/15 12:35:49;;;;;;;;;23.00;21.20;;;;;30.88;48.93;98543.75;6123457;28;96287;-55
2024/03/15 12:38:53;;;;;;;;;24.00;20.40;;;;;29.68;57.16;98532.38;6134164;28;96741;-58
2024/03/15 12:41:56;;;;;;;;;24.60;21.00;;;;;29.08;59.78;98536.19;6123165;28;96226;-58
2024/03/15 12:44:59;;;;;;;;;24.40;22.00;;;;;28.75;65.15;98533.63;6143847;28;96126;-57
2024/03/15 12:48:03;;;;;;;;;23.50;21.25;;;;;28.54;67.63;98530.94;6130336;28;96311;-57
2024/03/15 12:51:07;;;;;;;;;25.20;23.00;;;;;28.18;63.92;98520.72;6146148;28;97014;-56
2024/03/15 12:54:10;;;;;;;;;19.40;18.40;;;;;27.35;64.12;98518.19;6146004;28;96302;-58
2024/03/15 12:57:13;;;;;;;;;24.00;21.50;;;;;26.41;68.78;98525.22;6122346;28;96287;-57
2024/03/15 13:00:19;;;;;;;;;21.00;17.75;;;;;26.02;77.94;98528.31;6145196;28;97050;-57
2024/03/15 13:03:23;;;;;;;;;21.00;20.00;;;;;25.51;75.23;98521.00;6123003;28;96768;-57
2024/03/15 13:06:26;;;;;;;;;21.00;19.00;;;;;25.49;78.05;98520.50;6150850;28;96481;-57
2024/03/15 13:09:29;;;;;;;;;21.60;20.00;;;;;25.62;76.39;98523.09;6140789;28;96347;-57
2024/03/15 13:12:32;;;;;;;;;20.40;17.00;;;;;25.69;77.01;98517.06;6149264;28;96607;-57
2024/03/15 13:15:36;;;;;;;;;18.75;15.25;;;;;25.75;75.66;98507.47;6142720;28;96252;-57
2024/03/15 13:18:41;;;;;;;;;19.00;17.00;;;;;25.77;75.90;98505.19;6134308;28;97054;-57
2024/03/15 13:21:44;;;;;;;;;22.00;18.20;;;;;25.35;76.91;98517.94;6146780;28;96909;-57
2024/03/15 13:24:47;;;;;;;;;21.60;19.60;;;;;25.25;77.85;98515.53;6122054;28;96478;-58
2024/03/15 13:27:51;;;;;;;;;20.60;19.00;;;;;25.34;78.40;98508.84;6120336;28;96849;-57
2024/03/15 13:30:54;;;;;;;;;20.40;18.40;;;;;25.18;76.14;98517.94;6106566;28;96884;-57
2024/03/15 13:33:58;;;;;;;;;18.80;16.80;;;;;24.94;75.84;98513.75;6099090;28;96278;-56
2024/03/15 13:37:01;;;;;;;;;17.80;16.40;;;;;24.66;78.51;98506.09;6118063;28;96278;-56
2024/03/15 13:40:08;;;;;;;;;16.00;15.00;;;;;24.41;78.14;98502.16;6140236;28;97015;-56
2024/03/15 13:43:12;;;;;;;;;18.00;16.00;;;;;23.81;78.92;98493.66;6122250;28;96312;-57
2024/03/15 13:46:16;;;;;;;;;16.00;14.00;;;;;23.68;82.67;98498.97;6130322;28;96694;-58
2024/03/15 13:49:19;;;;;;;;;16.75;15.00;;;;;23.23;81.34;98489.94;6113445;28;98967;-61
2024/03/15 13:52:22;;;;;;;;;18.40;14.40;;;;;23.20;84.63;98500.75;6145019;28;96348;-60
2024/03/15 13:55:25;;;;;;;;;15.50;15.00;;;;;23.07;83.17;98466.69;6150616;28;96967;-60
2024/03/15 13:58:29;;;;;;;;;17.00;16.00;;;;;22.69;83.27;98471.72;6154767;28;96251;-60
2024/03/15 14:01:32;;;;;;;;;18.00;16.80;;;;;22.56;85.92;98493.75;6155393;28;96342;-60
2024/03/15 14:04:36;;;;;;;;;14.75;13.75;;;;;22.47;88.46;98501.91;6156495;28;96285;-61
2024/03/15 14:07:39;;;;;;;;;15.00;14.00;;;;;22.30;89.03;98497.06;6152045;28;96786;-59